Fairlawn, Ohio
Current Conditions -  °F | °C
As of 4:54 PM on Saturday 25 Oct 2014 (Local Time) from KAKR Reporting Station
Few Clouds Few Clouds  
Wind Chill: 71°   Ceiling: Unl
Heat Index: 71°   Visibility: 10mi
Dew Point: 50°   Wind: 14mph
Humidity: 47%   Direction: 280°W
Pressure: 29.76"   Gusts: 24mph
Location:  41.0812°N, 81.5191°W
Report Text: KAKR 252054Z AUTO 28012G21KT 10SM FEW049 22/10 A2976 RMK AO2 SLP076 T02170100 56012
Loading
Personal Weather Stations






























Interactive Weather Map
Tropical Storm Tracking
New forecast layout! Learn more

10-Day Weather Forecast

Advertisements
Track Severe Weather on mobile